sensor_id;sensor_type;location;lat;lon;timestamp;pressure;altitude;pressure_sealevel;temperature;humidity
58975;BME280;44751;52.236;5.178;2023-04-22T00:19:37;100704.53;;;8.73;100.00
58975;BME280;44751;52.236;5.178;2023-04-22T00:22:13;100706.53;;;8.62;100.00
58975;BME280;44751;52.236;5.178;2023-04-22T00:25:02;100701.31;;;8.52;100.00
58975;BME280;44751;52.236;5.178;2023-04-22T06:29:51;100600.47;;;8.48;100.00
58975;BME280;44751;52.236;5.178;2023-04-22T06:32:17;100595.97;;;8.40;100.00
58975;BME280;44751;52.236;5.178;2023-04-22T06:34:44;100578.81;;;8.50;100.00
58975;BME280;44751;52.236;5.178;2023-04-22T06:37:12;100577.78;;;8.68;100.00
58975;BME280;44751;52.236;5.178;2023-04-22T06:39:39;100567.53;;;8.63;100.00
58975;BME280;44751;52.236;5.178;2023-04-22T06:42:10;100565.78;;;8.87;100.00
58975;BME280;44751;52.236;5.178;2023-04-22T06:44:37;100560.53;;;8.94;100.00
58975;BME280;44751;52.236;5.178;2023-04-22T06:47:03;100566.72;;;9.02;100.00
58975;BME280;44751;52.236;5.178;2023-04-22T06:49:30;100564.50;;;9.06;100.00
58975;BME280;44751;52.236;5.178;2023-04-22T06:51:59;100572.75;;;9.04;100.00
58975;BME280;44751;52.236;5.178;2023-04-22T06:54:26;100566.22;;;9.30;100.00
58975;BME280;44751;52.236;5.178;2023-04-22T06:56:56;100552.09;;;9.28;100.00
58975;BME280;44751;52.236;5.178;2023-04-22T06:59:22;100549.53;;;9.59;100.00
58975;BME280;44751;52.236;5.178;2023-04-22T07:01:49;100556.03;;;9.41;100.00
58975;BME280;44751;52.236;5.178;2023-04-22T07:04:15;100548.53;;;9.36;100.00
58975;BME280;44751;52.236;5.178;2023-04-22T07:06:48;100536.81;;;9.67;100.00
58975;BME280;44751;52.236;5.178;2023-04-22T07:09:17;100533.34;;;9.82;100.00
58975;BME280;44751;52.236;5.178;2023-04-22T07:11:53;100547.78;;;9.66;100.00
58975;BME280;44751;52.236;5.178;2023-04-22T07:14:31;100551.53;;;9.80;100.00
58975;BME280;44751;52.236;5.178;2023-04-22T07:17:29;100542.66;;;10.10;100.00
58975;BME280;44751;52.236;5.178;2023-04-22T07:19:59;100551.63;;;10.40;100.00
58975;BME280;44751;52.236;5.178;2023-04-22T07:22:28;100550.53;;;10.65;100.00
58975;BME280;44751;52.236;5.178;2023-04-22T07:24:57;100550.06;;;10.76;100.00
58975;BME280;44751;52.236;5.178;2023-04-22T07:27:24;100545.50;;;10.92;100.00
58975;BME280;44751;52.236;5.178;2023-04-22T07:29:50;100539.53;;;10.81;100.00
58975;BME280;44751;52.236;5.178;2023-04-22T07:32:23;100551.59;;;11.01;100.00
58975;BME280;44751;52.236;5.178;2023-04-22T07:34:52;100549.28;;;10.97;100.00
58975;BME280;44751;52.236;5.178;2023-04-22T08:50:53;100505.28;;;16.07;100.00
58975;BME280;44751;52.236;5.178;2023-04-22T08:56:45;100518.47;;;17.16;100.00
58975;BME280;44751;52.236;5.178;2023-04-22T08:59:25;100515.84;;;16.41;100.00
58975;BME280;44751;52.236;5.178;2023-04-22T09:01:53;100510.63;;;17.08;100.00
58975;BME280;44751;52.236;5.178;2023-04-22T09:04:22;100516.94;;;17.99;100.00
58975;BME280;44751;52.236;5.178;2023-04-22T09:06:58;100523.13;;;18.42;100.00
58975;BME280;44751;52.236;5.178;2023-04-22T09:09:29;100510.47;;;18.77;100.00
58975;BME280;44751;52.236;5.178;2023-04-22T09:12:19;100510.19;;;18.78;100.00
58975;BME280;44751;52.236;5.178;2023-04-22T09:14:45;100505.59;;;19.37;100.00
58975;BME280;44751;52.236;5.178;2023-04-22T09:17:57;100504.31;;;19.96;100.00
58975;BME280;44751;52.236;5.178;2023-04-22T09:24:02;100494.47;;;19.78;100.00
58975;BME280;44751;52.236;5.178;2023-04-22T09:26:29;100495.19;;;19.22;100.00
58975;BME280;44751;52.236;5.178;2023-04-22T09:28:57;100484.06;;;18.41;100.00
58975;BME280;44751;52.236;5.178;2023-04-22T09:31:26;100474.00;;;18.06;100.00
58975;BME280;44751;52.236;5.178;2023-04-22T09:33:57;100477.53;;;18.83;100.00
58975;BME280;44751;52.236;5.178;2023-04-22T09:36:28;100477.34;;;19.88;100.00
58975;BME280;44751;52.236;5.178;2023-04-22T09:39:01;100482.66;;;20.12;100.00
58975;BME280;44751;52.236;5.178;2023-04-22T09:41:33;100471.56;;;19.50;100.00
58975;BME280;44751;52.236;5.178;2023-04-22T09:44:02;100474.44;;;20.12;100.00
58975;BME280;44751;52.236;5.178;2023-04-22T09:46:30;100466.66;;;20.71;96.19
58975;BME280;44751;52.236;5.178;2023-04-22T09:48:58;100447.28;;;20.55;100.00
58975;BME280;44751;52.236;5.178;2023-04-22T09:51:25;100446.78;;;21.41;97.98
58975;BME280;44751;52.236;5.178;2023-04-22T09:54:05;100438.91;;;21.93;95.33
58975;BME280;44751;52.236;5.178;2023-04-22T09:56:51;100426.22;;;21.82;92.07
58975;BME280;44751;52.236;5.178;2023-04-22T09:59:26;100412.56;;;22.66;94.55
58975;BME280;44751;52.236;5.178;2023-04-22T10:02:11;100416.16;;;22.72;91.24
58975;BME280;44751;52.236;5.178;2023-04-22T10:04:46;100424.22;;;22.20;91.25
58975;BME280;44751;52.236;5.178;2023-04-22T10:07:20;100426.47;;;21.80;90.07
58975;BME280;44751;52.236;5.178;2023-04-22T10:09:46;100439.78;;;21.61;90.66
58975;BME280;44751;52.236;5.178;2023-04-22T10:12:16;100443.63;;;21.98;93.52
58975;BME280;44751;52.236;5.178;2023-04-22T10:14:43;100443.41;;;23.00;92.55
58975;BME280;44751;52.236;5.178;2023-04-22T10:17:14;100448.72;;;22.32;90.37
58975;BME280;44751;52.236;5.178;2023-04-22T10:19:46;100454.66;;;21.70;89.81
58975;BME280;44751;52.236;5.178;2023-04-22T10:22:13;100452.81;;;22.24;91.75
58975;BME280;44751;52.236;5.178;2023-04-22T10:24:40;100459.41;;;23.29;88.53
58975;BME280;44751;52.236;5.178;2023-04-22T10:27:11;100452.78;;;21.38;91.02
58975;BME280;44751;52.236;5.178;2023-04-22T10:29:40;100448.94;;;20.11;95.75
58975;BME280;44751;52.236;5.178;2023-04-22T10:34:45;100436.59;;;19.69;98.74
58975;BME280;44751;52.236;5.178;2023-04-22T10:37:20;100440.53;;;19.96;99.25
58975;BME280;44751;52.236;5.178;2023-04-22T10:40:14;100435.34;;;19.60;100.00
58975;BME280;44751;52.236;5.178;2023-04-22T10:42:47;100430.72;;;19.26;100.00
58975;BME280;44751;52.236;5.178;2023-04-22T10:45:14;100437.19;;;19.20;100.00
58975;BME280;44751;52.236;5.178;2023-04-22T10:47:46;100430.66;;;18.92;100.00
58975;BME280;44751;52.236;5.178;2023-04-22T10:50:22;100435.28;;;18.21;100.00
58975;BME280;44751;52.236;5.178;2023-04-22T10:55:58;100429.16;;;17.54;100.00
58975;BME280;44751;52.236;5.178;2023-04-22T10:58:26;100438.75;;;17.45;100.00
58975;BME280;44751;52.236;5.178;2023-04-22T11:00:53;100449.06;;;17.31;100.00
58975;BME280;44751;52.236;5.178;2023-04-22T11:03:26;100444.13;;;17.09;100.00
58975;BME280;44751;52.236;5.178;2023-04-22T11:06:19;100454.69;;;16.86;100.00
58975;BME280;44751;52.236;5.178;2023-04-22T11:09:23;100470.88;;;16.32;100.00
58975;BME280;44751;52.236;5.178;2023-04-22T11:15:06;100451.44;;;15.91;100.00
58975;BME280;44751;52.236;5.178;2023-04-22T11:17:51;100442.94;;;16.06;100.00
58975;BME280;44751;52.236;5.178;2023-04-22T11:20:19;100450.72;;;16.21;100.00
58975;BME280;44751;52.236;5.178;2023-04-22T11:22:54;100452.22;;;16.17;100.00
58975;BME280;44751;52.236;5.178;2023-04-22T11:25:25;100448.84;;;16.21;100.00
58975;BME280;44751;52.236;5.178;2023-04-22T11:28:21;100441.38;;;15.91;100.00
58975;BME280;44751;52.236;5.178;2023-04-22T11:30:48;100439.22;;;15.74;100.00
58975;BME280;44751;52.236;5.178;2023-04-22T11:33:15;100442.44;;;15.46;100.00
58975;BME280;44751;52.236;5.178;2023-04-22T11:35:52;100442.38;;;15.53;100.00
58975;BME280;44751;52.236;5.178;2023-04-22T11:38:19;100431.81;;;15.63;100.00
58975;BME280;44751;52.236;5.178;2023-04-22T11:40:52;100437.41;;;15.68;100.00
58975;BME280;44751;52.236;5.178;2023-04-22T11:43:23;100446.50;;;15.81;100.00
58975;BME280;44751;52.236;5.178;2023-04-22T11:46:00;100447.50;;;15.86;100.00
58975;BME280;44751;52.236;5.178;2023-04-22T11:48:41;100457.28;;;15.69;100.00
58975;BME280;44751;52.236;5.178;2023-04-22T11:51:18;100468.44;;;15.60;100.00
58975;BME280;44751;52.236;5.178;2023-04-22T11:54:26;100467.13;;;15.44;100.00
58975;BME280;44751;52.236;5.178;2023-04-22T11:57:05;100476.31;;;15.11;100.00
58975;BME280;44751;52.236;5.178;2023-04-22T11:59:35;100475.28;;;14.73;100.00
58975;BME280;44751;52.236;5.178;2023-04-22T12:02:07;100469.09;;;14.45;100.00
58975;BME280;44751;52.236;5.178;2023-04-22T12:04:42;100479.63;;;14.22;100.00
58975;BME280;44751;52.236;5.178;2023-04-22T12:07:09;100485.72;;;14.03;100.00
58975;BME280;44751;52.236;5.178;2023-04-22T12:09:47;100482.84;;;13.64;100.00
58975;BME280;44751;52.236;5.178;2023-04-22T12:12:29;100483.88;;;13.70;100.00
58975;BME280;44751;52.236;5.178;2023-04-22T12:15:09;100478.25;;;13.78;100.00
58975;BME280;44751;52.236;5.178;2023-04-22T12:17:38;100486.38;;;13.72;100.00
58975;BME280;44751;52.236;5.178;2023-04-22T12:20:05;100484.94;;;13.69;100.00
58975;BME280;44751;52.236;5.178;2023-04-22T12:22:32;100485.97;;;13.75;100.00
58975;BME280;44751;52.236;5.178;2023-04-22T12:25:10;100479.06;;;13.45;100.00
58975;BME280;44751;52.236;5.178;2023-04-22T12:27:37;100491.94;;;13.23;100.00
58975;BME280;44751;52.236;5.178;2023-04-22T12:30:05;100486.75;;;13.28;100.00
58975;BME280;44751;52.236;5.178;2023-04-22T12:32:40;100477.81;;;13.54;100.00
58975;BME280;44751;52.236;5.178;2023-04-22T12:35:11;100464.28;;;13.54;100.00
58975;BME280;44751;52.236;5.178;2023-04-22T12:37:37;100483.03;;;13.56;100.00
58975;BME280;44751;52.236;5.178;2023-04-22T12:40:04;100492.34;;;13.20;100.00
58975;BME280;44751;52.236;5.178;2023-04-22T12:42:35;100503.56;;;12.96;100.00
58975;BME280;44751;52.236;5.178;2023-04-22T12:45:09;100517.38;;;13.22;100.00
58975;BME280;44751;52.236;5.178;2023-04-22T12:47:40;100517.13;;;13.10;100.00
58975;BME280;44751;52.236;5.178;2023-04-22T12:50:09;100520.44;;;13.05;100.00
58975;BME280;44751;52.236;5.178;2023-04-22T12:52:37;100501.06;;;12.95;100.00
58975;BME280;44751;52.236;5.178;2023-04-22T12:55:04;100492.72;;;12.89;100.00
58975;BME280;44751;52.236;5.178;2023-04-22T12:57:32;100507.34;;;13.09;100.00
58975;BME280;44751;52.236;5.178;2023-04-22T12:59:58;100502.97;;;13.08;100.00
58975;BME280;44751;52.236;5.178;2023-04-22T13:02:32;100485.81;;;12.87;100.00
58975;BME280;44751;52.236;5.178;2023-04-22T13:05:02;100481.06;;;13.09;100.00
58975;BME280;44751;52.236;5.178;2023-04-22T13:07:32;100469.63;;;13.21;100.00
58975;BME280;44751;52.236;5.178;2023-04-22T13:10:08;100459.44;;;13.36;100.00
58975;BME280;44751;52.236;5.178;2023-04-22T13:12:38;100462.19;;;13.57;100.00
58975;BME280;44751;52.236;5.178;2023-04-22T13:15:13;100461.56;;;13.54;100.00
58975;BME280;44751;52.236;5.178;2023-04-22T14:13:30;100483.16;;;12.45;100.00
58975;BME280;44751;52.236;5.178;2023-04-22T14:16:01;100489.41;;;12.45;100.00
58975;BME280;44751;52.236;5.178;2023-04-22T14:18:34;100479.06;;;12.56;100.00
58975;BME280;44751;52.236;5.178;2023-04-22T14:21:07;100484.88;;;12.52;100.00
58975;BME280;44751;52.236;5.178;2023-04-22T14:23:36;100488.72;;;12.36;100.00
58975;BME280;44751;52.236;5.178;2023-04-22T14:26:07;100484.69;;;12.19;100.00
58975;BME280;44751;52.236;5.178;2023-04-22T14:28:37;100488.47;;;12.24;100.00
58975;BME280;44751;52.236;5.178;2023-04-22T14:31:08;100488.47;;;12.24;100.00
58975;BME280;44751;52.236;5.178;2023-04-22T14:34:19;100489.75;;;12.29;100.00
58975;BME280;44751;52.236;5.178;2023-04-22T14:41:35;100498.03;;;12.20;100.00
58975;BME280;44751;52.236;5.178;2023-04-22T14:47:38;100486.00;;;12.30;100.00
58975;BME280;44751;52.236;5.178;2023-04-22T14:50:06;100491.84;;;12.05;100.00
58975;BME280;44751;52.236;5.178;2023-04-22T14:52:33;100501.31;;;12.16;100.00
58975;BME280;44751;52.236;5.178;2023-04-22T14:55:14;100507.66;;;12.01;100.00
58975;BME280;44751;52.236;5.178;2023-04-22T14:57:41;100503.66;;;11.97;100.00
58975;BME280;44751;52.236;5.178;2023-04-22T15:00:10;100503.38;;;11.85;100.00
